createdAt,value
2022-09-03T00:00:57.835Z,1.98
2022-09-03T00:02:39.316Z,2.08
2022-09-03T00:04:21.379Z,2.47
2022-09-03T00:06:11.525Z,2.30
2022-09-03T00:07:50.495Z,2.08
2022-09-03T00:09:28.165Z,2.20
2022-09-03T00:11:13.230Z,2.47
2022-09-03T00:12:46.642Z,2.20
2022-09-03T00:14:24.015Z,2.05
2022-09-03T00:15:59.779Z,2.15
2022-09-03T00:17:35.980Z,2.03
2022-09-03T00:19:09.636Z,2.10
2022-09-03T00:20:47.908Z,1.88
2022-09-03T00:22:25.799Z,2.20
2022-09-03T00:24:01.374Z,2.53
2022-09-03T00:25:39.411Z,2.40
2022-09-03T00:27:17.239Z,2.25
2022-09-03T00:28:56.093Z,2.10
2022-09-03T00:30:33.693Z,1.95
2022-09-03T00:32:12.266Z,2.00
2022-09-03T00:33:47.642Z,2.08
2022-09-03T00:35:25.982Z,2.30
2022-09-03T00:37:00.293Z,2.15
2022-09-03T00:38:34.592Z,2.10
2022-09-03T00:40:16.199Z,1.95
2022-09-03T00:42:06.769Z,1.90
2022-09-03T00:43:54.830Z,2.10
2022-09-03T00:45:34.908Z,1.80
2022-09-03T00:47:15.995Z,1.70
2022-09-03T00:49:09.940Z,1.55
2022-09-03T00:50:53.939Z,1.67
2022-09-03T00:52:45.793Z,1.80
2022-09-03T00:54:25.490Z,1.52
2022-09-03T00:56:05.310Z,1.83
2022-09-03T00:57:54.659Z,1.73
2022-09-03T00:59:36.409Z,2.20
2022-09-03T01:01:19.105Z,1.95
2022-09-03T01:03:07.846Z,1.73
2022-09-03T01:04:52.757Z,1.60
2022-09-03T01:06:33.064Z,1.90
2022-09-03T01:08:18.712Z,2.00
2022-09-03T01:09:58.383Z,1.90
2022-09-03T01:11:46.988Z,2.00
2022-09-03T01:13:24.943Z,2.05
2022-09-03T01:15:09.746Z,1.92
2022-09-03T01:16:51.630Z,1.60
2022-09-03T01:18:34.480Z,1.90
2022-09-03T01:20:28.787Z,2.07
2022-09-03T01:24:20.457Z,1.90
2022-09-03T01:26:04.767Z,1.85
2022-09-03T01:27:47.748Z,1.80
2022-09-03T01:29:28.767Z,1.70
2022-09-03T01:31:11.094Z,2.10
2022-09-03T01:32:50.109Z,2.08
2022-09-03T01:34:33.965Z,2.00
2022-09-03T01:37:51.610Z,1.80
2022-09-03T01:39:33.187Z,2.10
2022-09-03T01:41:31.625Z,1.75
2022-09-03T01:43:16.918Z,2.08
2022-09-03T01:45:31.829Z,1.92
2022-09-03T01:47:14.641Z,1.90
2022-09-03T01:48:59.867Z,1.70
2022-09-03T01:50:42.633Z,1.88
2022-09-03T01:52:20.479Z,2.10
2022-09-03T01:54:21.718Z,2.40
2022-09-03T01:56:09.048Z,2.60
2022-09-03T01:57:51.851Z,2.85
2022-09-03T01:59:30.864Z,2.40
2022-09-03T02:01:14.830Z,2.60
2022-09-03T02:02:53.482Z,2.53
2022-09-03T02:04:28.650Z,2.67
2022-09-03T02:06:00.905Z,2.83
2022-09-03T02:07:36.380Z,3.30
2022-09-03T02:09:09.312Z,2.80
2022-09-03T02:10:46.290Z,2.60
2022-09-03T02:12:20.259Z,2.55
2022-09-03T02:13:55.995Z,2.05
2022-09-03T02:15:31.106Z,2.30
2022-09-03T02:17:08.095Z,2.38
2022-09-03T02:18:44.277Z,2.20
2022-09-03T02:20:21.073Z,2.10
2022-09-03T02:21:57.652Z,2.00
2022-09-03T02:23:30.931Z,2.13
2022-09-03T02:26:37.431Z,2.13
2022-09-03T02:28:16.981Z,2.03
2022-09-03T02:29:50.813Z,1.90
2022-09-03T02:31:23.764Z,2.42
2022-09-03T02:32:58.103Z,2.00
2022-09-03T02:34:31.643Z,2.10
2022-09-03T02:36:07.259Z,1.98
2022-09-03T02:37:40.453Z,2.00
2022-09-03T02:39:13.851Z,1.80
2022-09-03T02:40:46.781Z,1.95
2022-09-03T02:42:19.132Z,1.98
2022-09-03T02:43:57.669Z,2.10
2022-09-03T02:45:31.502Z,2.22
2022-09-03T02:47:05.454Z,2.08
2022-09-03T02:48:39.810Z,1.92
2022-09-03T02:50:12.734Z,2.00
2022-09-03T02:51:46.349Z,2.13
2022-09-03T02:53:19.294Z,2.10
2022-09-03T02:54:52.210Z,2.10
2022-09-03T02:56:27.958Z,2.00
2022-09-03T02:58:01.367Z,2.28
2022-09-03T02:59:34.374Z,2.00
2022-09-03T03:01:07.628Z,2.00
2022-09-03T03:04:14.815Z,2.05
2022-09-03T03:05:50.748Z,2.03
2022-09-03T03:07:23.736Z,2.10
2022-09-03T03:08:57.639Z,2.40
2022-09-03T03:10:31.166Z,1.92
2022-09-03T03:12:04.733Z,2.22
2022-09-03T03:13:37.701Z,2.17
2022-09-03T03:15:11.295Z,2.05
2022-09-03T03:16:43.381Z,2.20
2022-09-03T03:18:17.467Z,2.00
2022-09-03T03:19:51.927Z,2.30
2022-09-03T03:21:24.932Z,2.20
2022-09-03T03:22:57.840Z,2.20
2022-09-03T03:24:30.751Z,2.10
2022-09-03T03:26:04.321Z,2.50
2022-09-03T03:27:43.201Z,2.42
2022-09-03T03:29:18.471Z,1.92
2022-09-03T03:30:53.006Z,2.20
2022-09-03T03:32:25.996Z,2.63
2022-09-03T03:34:00.994Z,2.13
2022-09-03T03:35:35.271Z,2.20
2022-09-03T03:37:08.221Z,2.10
2022-09-03T03:38:42.052Z,1.98
2022-09-03T03:40:15.360Z,2.10
2022-09-03T03:43:21.338Z,1.90
2022-09-03T03:44:54.253Z,2.05
2022-09-03T03:46:31.126Z,1.83
2022-09-03T03:48:04.489Z,2.60
2022-09-03T03:51:11.857Z,2.22
2022-09-03T03:52:44.810Z,2.00
2022-09-03T03:54:17.954Z,2.10
2022-09-03T03:55:57.657Z,2.17
2022-09-03T03:57:31.933Z,2.00
2022-09-03T03:59:05.466Z,2.30
2022-09-03T04:00:38.016Z,2.30
2022-09-03T04:02:10.949Z,2.40
2022-09-03T04:03:44.403Z,2.05
2022-09-03T04:05:17.482Z,2.35
2022-09-03T04:06:57.379Z,2.17
2022-09-03T04:08:30.610Z,2.28
2022-09-03T04:10:03.626Z,2.10
2022-09-03T04:11:36.546Z,2.08
2022-09-03T04:13:09.447Z,2.10
2022-09-03T04:14:43.010Z,1.95
2022-09-03T04:16:18.122Z,2.20
2022-09-03T04:17:51.155Z,2.00
2022-09-03T04:19:24.214Z,2.47
2022-09-03T04:21:04.190Z,2.20
2022-09-03T04:22:38.469Z,2.20
2022-09-03T04:24:11.988Z,2.10
2022-09-03T04:25:44.973Z,2.20
2022-09-03T04:27:17.914Z,2.20
2022-09-03T04:28:51.273Z,1.88
2022-09-03T04:32:10.052Z,2.10
2022-09-03T04:33:44.491Z,2.08
2022-09-03T04:35:16.626Z,2.30
2022-09-03T04:36:52.840Z,2.28
2022-09-03T04:38:29.953Z,2.42
2022-09-03T04:40:03.237Z,2.22
2022-09-03T04:43:08.966Z,2.10
2022-09-03T04:44:41.190Z,2.40
2022-09-03T04:46:18.404Z,2.20
2022-09-03T04:47:58.338Z,2.10
2022-09-03T04:49:31.277Z,2.03
2022-09-03T04:51:06.427Z,2.55
2022-09-03T04:52:39.377Z,2.47
2022-09-03T04:54:13.666Z,2.25
2022-09-03T04:55:46.618Z,2.80
2022-09-03T04:57:19.587Z,2.40
2022-09-03T04:58:56.637Z,2.22
2022-09-03T05:00:28.883Z,2.13
2022-09-03T05:02:01.762Z,2.05
2022-09-03T05:03:34.845Z,2.10
2022-09-03T05:05:07.271Z,1.77
2022-09-03T05:06:40.211Z,1.80
2022-09-03T05:08:13.262Z,2.38
2022-09-03T05:09:47.858Z,2.28
2022-09-03T05:11:20.630Z,1.85
2022-09-03T05:13:00.534Z,2.00
2022-09-03T05:14:33.646Z,1.80
2022-09-03T05:16:07.980Z,1.88
2022-09-03T05:17:41.032Z,2.10
2022-09-03T05:19:14.035Z,1.98
2022-09-03T05:20:46.932Z,2.17
2022-09-03T05:22:21.314Z,2.17
2022-09-03T05:23:54.808Z,2.33
2022-09-03T05:25:29.102Z,1.90
2022-09-03T05:27:02.287Z,1.90
2022-09-03T05:28:36.266Z,1.67
2022-09-03T05:30:10.072Z,1.80
2022-09-03T05:31:43.079Z,2.00
2022-09-03T05:33:16.476Z,1.92
2022-09-03T05:34:49.473Z,2.03
2022-09-03T05:36:25.496Z,1.92
2022-09-03T05:38:00.783Z,2.00
2022-09-03T05:39:33.749Z,1.90
2022-09-03T05:41:09.861Z,2.00
2022-09-03T05:42:42.898Z,2.10
2022-09-03T05:44:15.975Z,2.00
2022-09-03T05:45:49.077Z,1.90
2022-09-03T05:48:54.858Z,1.92
2022-09-03T05:50:28.011Z,2.17
2022-09-03T05:52:00.994Z,2.10
2022-09-03T05:53:36.020Z,2.47
2022-09-03T05:55:13.294Z,2.38
2022-09-03T05:56:47.941Z,2.40
2022-09-03T05:58:20.894Z,2.40
2022-09-03T05:59:53.982Z,2.60
2022-09-03T06:01:28.962Z,2.10
2022-09-03T06:03:02.105Z,2.22
2022-09-03T06:04:35.197Z,2.10
2022-09-03T06:06:08.662Z,1.80
2022-09-03T06:07:42.044Z,2.00
2022-09-03T06:09:18.019Z,2.30
2022-09-03T06:10:51.294Z,2.10
2022-09-03T06:14:00.291Z,2.05
2022-09-03T06:15:33.479Z,2.10
2022-09-03T06:17:06.519Z,2.03
2022-09-03T06:18:39.469Z,3.60
2022-09-03T06:20:13.387Z,2.58
2022-09-03T06:21:47.804Z,3.00
2022-09-03T06:23:20.258Z,2.80
2022-09-03T06:24:53.486Z,2.10
2022-09-03T06:26:28.132Z,2.40
2022-09-03T06:28:02.587Z,2.50
2022-09-03T06:29:36.284Z,2.00
2022-09-03T06:31:11.644Z,2.15
2022-09-03T06:32:45.519Z,2.53
2022-09-03T06:34:19.430Z,2.40
2022-09-03T06:35:57.550Z,2.88
2022-09-03T06:37:30.556Z,2.30
2022-09-03T06:39:03.691Z,2.22
2022-09-03T06:40:36.669Z,2.60
2022-09-03T06:42:10.044Z,2.20
2022-09-03T06:43:43.534Z,2.50
2022-09-03T06:45:17.681Z,1.98
2022-09-03T06:46:52.378Z,2.20
2022-09-03T06:48:24.892Z,2.20
2022-09-03T06:49:59.006Z,2.60
2022-09-03T06:51:34.057Z,1.98
2022-09-03T06:53:07.085Z,2.45
2022-09-03T06:54:40.700Z,2.65
2022-09-03T06:56:16.912Z,2.30
2022-09-03T06:57:52.890Z,2.50
2022-09-03T06:59:28.308Z,2.45
2022-09-03T07:01:06.834Z,2.30
2022-09-03T07:02:44.768Z,1.98
2022-09-03T07:04:20.482Z,2.10
2022-09-03T07:05:52.640Z,2.30
2022-09-03T07:07:25.749Z,2.00
2022-09-03T07:09:00.250Z,2.10
2022-09-03T07:10:34.912Z,2.35
2022-09-03T07:12:08.218Z,2.22
2022-09-03T07:15:16.995Z,1.80
2022-09-03T07:16:50.862Z,1.90
2022-09-03T07:18:23.006Z,2.42
2022-09-03T07:19:56.074Z,1.90
2022-09-03T07:21:31.455Z,2.03
2022-09-03T07:23:04.594Z,2.05
2022-09-03T07:24:37.751Z,2.00
2022-09-03T07:26:13.695Z,1.85
2022-09-03T07:27:47.316Z,2.13
2022-09-03T07:29:21.559Z,2.10
2022-09-03T07:31:01.781Z,1.90
2022-09-03T07:32:34.995Z,1.63
2022-09-03T07:35:43.385Z,1.90
2022-09-03T07:37:18.361Z,1.75
2022-09-03T07:38:52.111Z,1.73
2022-09-03T07:40:25.130Z,1.85
2022-09-03T07:41:58.197Z,2.58
2022-09-03T07:43:35.389Z,1.80
2022-09-03T07:45:10.744Z,2.40
2022-09-03T07:46:47.336Z,2.20
2022-09-03T07:48:20.348Z,2.10
2022-09-03T07:49:53.516Z,2.00
2022-09-03T07:53:00.816Z,1.90
2022-09-03T07:54:33.778Z,1.83
2022-09-03T07:56:08.362Z,1.85
2022-09-03T07:57:41.402Z,1.80
2022-09-03T07:59:14.413Z,1.90
2022-09-03T08:00:48.553Z,1.90
2022-09-03T08:02:23.378Z,2.45
2022-09-03T08:03:57.039Z,1.85
2022-09-03T08:05:30.025Z,2.00
2022-09-03T08:07:03.818Z,1.60
2022-09-03T08:08:37.923Z,1.42
2022-09-03T08:10:11.245Z,1.83
2022-09-03T08:11:45.189Z,1.70
2022-09-03T08:13:18.369Z,1.95
2022-09-03T08:16:24.559Z,1.50
2022-09-03T08:18:03.525Z,1.60
2022-09-03T08:19:40.203Z,1.70
2022-09-03T08:21:15.826Z,1.90
2022-09-03T08:22:49.601Z,2.10
2022-09-03T08:24:24.702Z,1.90
2022-09-03T08:26:01.285Z,1.80
2022-09-03T08:27:35.289Z,1.70
2022-09-03T08:29:08.438Z,1.80
2022-09-03T08:32:15.271Z,1.90
2022-09-03T08:33:51.340Z,1.85
2022-09-03T08:35:24.447Z,1.70
2022-09-03T08:36:59.021Z,1.98
2022-09-03T08:38:32.373Z,2.10
2022-09-03T08:40:06.337Z,2.42
2022-09-03T08:41:58.207Z,1.80
2022-09-03T08:43:32.171Z,1.90
2022-09-03T08:45:08.755Z,1.70
2022-09-03T08:46:51.486Z,2.40
2022-09-03T08:48:26.817Z,1.95
2022-09-03T08:50:05.312Z,2.00
2022-09-03T08:51:39.198Z,2.90
2022-09-03T08:53:18.956Z,2.53
2022-09-03T08:54:54.182Z,1.85
2022-09-03T08:56:29.904Z,1.85
2022-09-03T08:58:06.906Z,1.70
2022-09-03T08:59:39.894Z,1.83
2022-09-03T09:01:24.277Z,1.80
2022-09-03T09:03:08.838Z,3.15
2022-09-03T09:04:54.796Z,2.63
2022-09-03T09:06:36.290Z,5.00
2022-09-03T09:08:18.159Z,3.47
2022-09-03T09:09:58.719Z,1.80
2022-09-03T09:11:47.087Z,3.28
2022-09-03T09:13:30.062Z,2.95
2022-09-03T09:15:11.758Z,2.50
2022-09-03T09:16:52.161Z,2.10
2022-09-03T09:18:32.190Z,1.88
2022-09-03T09:20:14.327Z,1.90
2022-09-03T09:21:54.156Z,1.90
2022-09-03T09:23:32.401Z,2.10
2022-09-03T09:25:14.274Z,2.10
2022-09-03T09:26:49.347Z,1.88
2022-09-03T09:28:24.340Z,2.75
2022-09-03T09:30:02.768Z,2.25
2022-09-03T09:31:36.002Z,1.88
2022-09-03T09:33:13.211Z,1.95
2022-09-03T09:34:51.815Z,1.80
2022-09-03T09:36:26.106Z,2.20
2022-09-03T09:38:01.267Z,1.80
2022-09-03T09:39:34.349Z,1.98
2022-09-03T09:42:44.151Z,1.90
2022-09-03T09:44:21.954Z,1.90
2022-09-03T09:45:55.612Z,2.13
2022-09-03T09:47:31.610Z,2.65
2022-09-03T09:49:08.843Z,1.98
2022-09-03T09:50:41.891Z,2.13
2022-09-03T09:52:17.234Z,1.92
2022-09-03T09:54:02.685Z,2.00
2022-09-03T09:55:35.090Z,1.70
2022-09-03T09:57:17.862Z,1.90
2022-09-03T09:58:52.653Z,2.08
2022-09-03T10:00:25.770Z,1.90
2022-09-03T10:03:57.192Z,1.92
2022-09-03T10:05:33.586Z,1.80
2022-09-03T10:07:16.343Z,2.00
2022-09-03T10:08:51.138Z,2.20
2022-09-03T10:10:25.634Z,1.77
2022-09-03T10:12:11.043Z,2.22
2022-09-03T10:13:48.558Z,2.00
2022-09-03T10:15:27.152Z,1.80
2022-09-03T10:17:06.120Z,1.92
2022-09-03T10:18:45.755Z,2.00
2022-09-03T10:20:27.940Z,2.30
2022-09-03T10:22:08.605Z,2.38
2022-09-03T10:23:51.605Z,2.00
2022-09-03T10:25:30.247Z,2.15
2022-09-03T10:27:03.459Z,2.15
2022-09-03T10:30:16.134Z,1.70
2022-09-03T10:32:02.160Z,1.80
2022-09-03T10:33:40.588Z,1.90
2022-09-03T10:35:23.068Z,2.03
2022-09-03T10:37:04.049Z,1.92
2022-09-03T10:38:37.992Z,1.80
2022-09-03T10:40:36.303Z,1.98
2022-09-03T10:42:20.120Z,1.90
2022-09-03T10:44:12.929Z,2.10
2022-09-03T10:45:54.899Z,2.10
2022-09-03T10:47:41.102Z,2.20
2022-09-03T10:49:35.594Z,2.30
2022-09-03T10:51:15.259Z,2.28
2022-09-03T10:53:07.959Z,2.30
2022-09-03T10:54:56.324Z,2.95
2022-09-03T10:56:36.169Z,2.40
2022-09-03T10:58:30.729Z,2.40
2022-09-03T11:00:10.152Z,2.10
2022-09-03T11:01:51.625Z,2.22
2022-09-03T11:03:47.987Z,2.40
2022-09-03T11:05:25.030Z,2.53
2022-09-03T11:07:03.401Z,2.33
2022-09-03T11:08:44.161Z,2.20
2022-09-03T11:10:21.857Z,2.40
2022-09-03T11:12:01.727Z,2.13
2022-09-03T11:13:40.137Z,2.10
2022-09-03T11:15:25.169Z,2.30
2022-09-03T11:17:06.742Z,3.35
2022-09-03T11:18:44.759Z,2.50
2022-09-03T11:20:21.650Z,2.30
2022-09-03T11:21:55.616Z,2.50
2022-09-03T11:23:30.917Z,2.42
2022-09-03T11:25:05.538Z,2.60
2022-09-03T11:26:39.581Z,2.40
2022-09-03T11:28:23.990Z,2.20
2022-09-03T11:30:03.382Z,2.30
2022-09-03T11:31:48.086Z,2.90
2022-09-03T11:33:24.683Z,2.60
2022-09-03T11:34:58.170Z,2.65
2022-09-03T11:36:34.453Z,2.60
2022-09-03T11:38:23.473Z,2.50
2022-09-03T11:40:00.658Z,2.70
2022-09-03T11:41:36.243Z,2.80
2022-09-03T11:43:15.672Z,2.90
2022-09-03T11:44:52.731Z,2.80
2022-09-03T11:46:31.775Z,2.95
2022-09-03T11:48:19.153Z,2.70
2022-09-03T11:49:53.947Z,3.10
2022-09-03T11:51:37.816Z,2.50
2022-09-03T11:53:24.363Z,2.85
2022-09-03T11:54:57.774Z,2.65
2022-09-03T11:56:32.576Z,2.60
2022-09-03T11:58:13.607Z,2.95
2022-09-03T11:59:48.646Z,2.70
2022-09-03T12:01:24.582Z,2.50
2022-09-03T12:03:02.899Z,2.65
2022-09-03T12:04:43.525Z,2.75
2022-09-03T12:06:37.420Z,2.30
2022-09-03T12:08:33.528Z,2.83
2022-09-03T12:10:20.291Z,2.40
2022-09-03T12:12:06.099Z,2.38
2022-09-03T12:13:52.346Z,2.65
2022-09-03T12:15:43.037Z,3.15
2022-09-03T12:17:28.250Z,2.80
2022-09-03T12:19:07.548Z,2.30
2022-09-03T12:20:46.104Z,2.53
2022-09-03T12:22:21.546Z,2.72
2022-09-03T12:23:58.072Z,2.60
2022-09-03T12:25:30.825Z,3.25
2022-09-03T12:27:03.904Z,2.63
2022-09-03T12:31:51.545Z,2.40
2022-09-03T12:33:25.999Z,2.50
2022-09-03T12:34:59.865Z,2.40
2022-09-03T12:36:39.054Z,2.33
2022-09-03T12:38:18.582Z,2.50
2022-09-03T12:40:09.142Z,2.80
2022-09-03T12:41:56.944Z,2.50
2022-09-03T12:43:39.144Z,2.42
2022-09-03T12:45:15.841Z,2.60
2022-09-03T12:47:32.625Z,3.03
2022-09-03T12:50:56.170Z,2.88
2022-09-03T12:52:32.903Z,2.53
2022-09-03T12:54:09.729Z,2.85
2022-09-03T12:55:47.533Z,2.60
2022-09-03T12:57:24.780Z,2.50
2022-09-03T12:59:00.639Z,2.65
2022-09-03T13:00:36.636Z,2.85
2022-09-03T13:02:19.125Z,2.40
2022-09-03T13:03:57.876Z,2.63
2022-09-03T13:05:35.177Z,2.88
2022-09-03T13:07:13.143Z,2.85
2022-09-03T13:08:49.404Z,2.72
2022-09-03T13:10:28.542Z,2.90
2022-09-03T13:12:05.501Z,2.47
2022-09-03T13:13:40.605Z,2.60
2022-09-03T13:15:21.393Z,2.83
2022-09-03T13:17:16.333Z,2.60
2022-09-03T13:18:57.022Z,2.58
2022-09-03T13:20:36.120Z,2.63
2022-09-03T13:22:17.784Z,2.60
2022-09-03T13:24:04.093Z,2.50
2022-09-03T13:25:52.423Z,2.50
2022-09-03T13:27:33.807Z,2.67
2022-09-03T13:29:35.274Z,2.60
2022-09-03T13:31:23.184Z,2.70
2022-09-03T13:33:01.931Z,2.60
2022-09-03T13:34:41.321Z,2.53
2022-09-03T13:36:18.995Z,2.75
2022-09-03T13:37:59.702Z,2.90
2022-09-03T13:39:40.978Z,2.78
2022-09-03T13:41:20.508Z,2.90
2022-09-03T13:42:57.591Z,2.83
2022-09-03T13:44:42.336Z,3.80
2022-09-03T13:46:22.164Z,3.13
2022-09-03T13:48:19.292Z,3.13
2022-09-03T13:50:18.476Z,3.00
2022-09-03T13:51:57.293Z,2.70
2022-09-03T13:53:41.980Z,2.55
2022-09-03T13:55:21.189Z,3.00
2022-09-03T13:57:00.822Z,3.10
2022-09-03T13:58:38.591Z,3.42
2022-09-03T14:00:14.029Z,2.58
2022-09-03T14:02:14.214Z,2.88
2022-09-03T14:03:51.373Z,2.67
2022-09-03T14:05:45.870Z,2.85
2022-09-03T14:07:26.270Z,3.65
2022-09-03T14:09:08.086Z,3.13
2022-09-03T14:10:55.735Z,2.90
2022-09-03T14:12:38.849Z,3.17
2022-09-03T14:14:21.568Z,2.70
2022-09-03T14:16:04.323Z,3.00
2022-09-03T14:17:43.608Z,3.28
2022-09-03T14:19:21.973Z,2.83
2022-09-03T14:21:02.688Z,3.60
2022-09-03T14:22:49.839Z,3.72
2022-09-03T14:24:29.213Z,3.50
2022-09-03T14:26:06.579Z,2.80
2022-09-03T14:27:40.615Z,2.75
2022-09-03T14:30:59.984Z,3.42
2022-09-03T14:32:42.393Z,2.80
2022-09-03T14:34:28.078Z,3.10
2022-09-03T14:36:18.669Z,2.83
2022-09-03T14:38:25.247Z,3.00
2022-09-03T14:40:05.920Z,3.13
2022-09-03T14:42:19.568Z,6.63
2022-09-03T14:44:08.312Z,3.17
2022-09-03T14:46:23.147Z,3.00
2022-09-03T14:48:14.441Z,3.38
2022-09-03T14:49:57.771Z,3.15
2022-09-03T14:51:50.645Z,3.40
2022-09-03T14:53:58.415Z,3.38
2022-09-03T14:56:09.826Z,3.20
2022-09-03T14:58:09.217Z,3.38
2022-09-03T15:00:04.623Z,3.13
2022-09-03T15:01:39.543Z,3.00
2022-09-03T15:03:26.646Z,2.92
2022-09-03T15:05:12.252Z,2.90
2022-09-03T15:07:01.542Z,3.50
2022-09-03T15:08:51.938Z,3.30
2022-09-03T15:10:32.907Z,2.97
2022-09-03T15:12:11.813Z,3.13
2022-09-03T15:13:49.773Z,3.10
2022-09-03T15:15:27.347Z,3.15
2022-09-03T15:17:21.443Z,3.13
2022-09-03T15:19:07.342Z,3.47
2022-09-03T15:20:50.687Z,2.95
2022-09-03T15:22:39.044Z,3.03
2022-09-03T15:24:20.778Z,3.20
2022-09-03T15:26:17.749Z,3.97
2022-09-03T15:28:03.657Z,3.22
2022-09-03T15:29:53.630Z,3.40
2022-09-03T15:31:36.052Z,3.20
2022-09-03T15:33:22.207Z,3.53
2022-09-03T15:35:05.203Z,3.10
2022-09-03T15:36:42.540Z,3.70
2022-09-03T15:38:27.116Z,3.00
2022-09-03T15:40:05.620Z,3.40
2022-09-03T15:41:47.401Z,3.90
2022-09-03T15:43:23.504Z,3.40
2022-09-03T15:45:03.548Z,3.60
2022-09-03T15:46:48.341Z,3.60
2022-09-03T15:48:30.405Z,3.15
2022-09-03T15:50:10.598Z,4.00
2022-09-03T15:51:50.790Z,3.50
2022-09-03T15:53:35.079Z,3.85
2022-09-03T15:55:13.992Z,3.55
2022-09-03T15:56:53.873Z,3.35
2022-09-03T15:58:34.205Z,3.45
2022-09-03T16:00:10.788Z,4.50
2022-09-03T16:01:53.416Z,4.38
2022-09-03T16:03:40.037Z,4.20
2022-09-03T16:05:19.084Z,4.78
2022-09-03T16:07:00.616Z,4.95
2022-09-03T16:08:45.267Z,4.13
2022-09-03T16:10:24.596Z,3.33
2022-09-03T16:12:07.479Z,3.40
2022-09-03T16:14:04.541Z,3.75
2022-09-03T16:15:42.785Z,3.58
2022-09-03T16:17:27.801Z,3.78
2022-09-03T16:19:07.984Z,4.20
2022-09-03T16:20:44.996Z,4.75
2022-09-03T16:22:27.686Z,3.45
2022-09-03T16:24:06.770Z,3.10
2022-09-03T16:25:50.581Z,2.80
2022-09-03T16:27:26.270Z,2.40
2022-09-03T16:29:04.214Z,2.60
2022-09-03T16:30:52.976Z,2.58
2022-09-03T16:32:40.464Z,3.60
2022-09-03T16:34:23.235Z,2.80
2022-09-03T16:36:04.899Z,2.85
2022-09-03T16:37:51.755Z,3.22
2022-09-03T16:39:39.007Z,3.20
2022-09-03T16:41:22.037Z,3.22
2022-09-03T16:43:23.633Z,4.03
2022-09-03T16:45:11.811Z,3.25
2022-09-03T16:46:51.350Z,2.70
2022-09-03T16:48:32.290Z,3.03
2022-09-03T16:50:19.154Z,3.30
2022-09-03T16:51:57.314Z,3.45
2022-09-03T16:53:44.289Z,3.25
2022-09-03T16:55:26.107Z,3.10
2022-09-03T16:57:17.074Z,2.75
2022-09-03T16:59:00.578Z,3.42
2022-09-03T17:00:47.527Z,3.67
2022-09-03T17:02:54.675Z,3.08
2022-09-03T17:04:48.038Z,3.63
2022-09-03T17:06:37.836Z,3.25
2022-09-03T17:08:20.600Z,3.35
2022-09-03T17:10:01.558Z,3.50
2022-09-03T17:11:45.853Z,3.60
2022-09-03T17:13:42.941Z,3.20
2022-09-03T17:15:46.856Z,3.55
2022-09-03T17:17:34.535Z,4.00
2022-09-03T17:19:16.382Z,4.18
2022-09-03T17:20:56.143Z,3.65
2022-09-03T17:22:43.005Z,4.32
2022-09-03T17:24:31.914Z,3.90
2022-09-03T17:26:12.957Z,5.95
2022-09-03T17:27:51.380Z,3.65
2022-09-03T17:29:40.407Z,4.28
2022-09-03T17:31:28.959Z,4.47
2022-09-03T17:33:35.097Z,3.47
2022-09-03T17:35:14.275Z,4.00
2022-09-03T17:36:59.952Z,4.05
2022-09-03T17:39:11.085Z,3.30
2022-09-03T17:40:58.419Z,3.33
2022-09-03T17:42:41.750Z,3.30
2022-09-03T17:44:26.087Z,3.17
2022-09-03T17:46:13.331Z,3.55
2022-09-03T17:48:12.992Z,3.60
2022-09-03T17:49:49.074Z,3.97
2022-09-03T17:51:46.065Z,4.70
2022-09-03T17:53:26.884Z,4.40
2022-09-03T17:55:12.767Z,4.30
2022-09-03T17:56:57.504Z,4.50
2022-09-03T17:58:36.311Z,4.28
2022-09-03T18:00:13.380Z,4.25
2022-09-03T18:01:51.738Z,4.20
2022-09-03T18:03:32.856Z,4.47
2022-09-03T18:05:17.863Z,4.35
2022-09-03T18:06:57.269Z,3.03
2022-09-03T18:08:37.399Z,3.40
2022-09-03T18:10:20.957Z,3.50
2022-09-03T18:12:06.368Z,2.90
2022-09-03T18:13:51.511Z,3.08
2022-09-03T18:15:33.513Z,3.00
2022-09-03T18:17:09.858Z,3.63
2022-09-03T18:18:47.671Z,3.05
2022-09-03T18:20:41.366Z,3.42
2022-09-03T18:22:31.914Z,3.10
2022-09-03T18:24:36.344Z,3.03
2022-09-03T18:26:33.312Z,2.85
2022-09-03T18:28:29.161Z,3.53
2022-09-03T18:30:24.125Z,4.00
2022-09-03T18:32:16.199Z,3.60
2022-09-03T18:34:06.729Z,3.47
2022-09-03T18:35:57.600Z,3.03
2022-09-03T18:37:48.913Z,3.30
2022-09-03T18:39:44.605Z,4.90
2022-09-03T18:41:59.694Z,3.88
2022-09-03T18:48:20.746Z,2.90
2022-09-03T18:50:22.649Z,2.75
2022-09-03T18:52:21.278Z,2.70
2022-09-03T18:54:25.974Z,3.33
2022-09-03T18:58:23.957Z,4.25
2022-09-03T19:00:29.002Z,4.20
2022-09-03T19:02:28.282Z,4.30
2022-09-03T19:04:32.020Z,4.90
2022-09-03T19:06:34.637Z,4.90
2022-09-03T19:08:33.784Z,4.38
2022-09-03T19:10:29.107Z,4.35
2022-09-03T19:12:33.849Z,4.38
2022-09-03T19:14:30.570Z,3.80
2022-09-03T19:16:28.279Z,4.25
2022-09-03T19:18:28.184Z,4.50
2022-09-03T19:20:28.563Z,5.65
2022-09-03T19:22:26.411Z,4.45
2022-09-03T19:24:21.107Z,4.97
2022-09-03T19:26:18.875Z,5.53
2022-09-03T19:28:24.438Z,5.20
2022-09-03T19:30:23.011Z,4.60
2022-09-03T19:32:19.687Z,4.65
2022-09-03T19:34:22.738Z,4.95
2022-09-03T19:36:24.200Z,5.25
2022-09-03T19:38:24.782Z,5.32
2022-09-03T19:40:28.736Z,4.60
2022-09-03T19:42:26.313Z,4.50
2022-09-03T19:44:31.720Z,5.30
2022-09-03T19:46:30.174Z,4.57
2022-09-03T19:48:30.313Z,4.45
2022-09-03T19:50:31.930Z,5.43
2022-09-03T19:52:31.767Z,4.85
2022-09-03T19:54:24.391Z,5.60
2022-09-03T19:56:17.495Z,5.68
2022-09-03T19:58:32.554Z,5.03
2022-09-03T20:00:32.968Z,5.25
2022-09-03T20:02:24.111Z,4.63
2022-09-03T20:04:17.537Z,5.35
2022-09-03T20:06:11.222Z,5.22
2022-09-03T20:08:04.358Z,4.75
2022-09-03T20:09:59.728Z,5.35
2022-09-03T20:11:32.953Z,5.03
2022-09-03T20:14:41.078Z,5.20
2022-09-03T20:16:22.061Z,5.60
2022-09-03T20:18:02.806Z,5.25
2022-09-03T20:19:50.489Z,6.45
2022-09-03T20:21:31.284Z,5.70
2022-09-03T20:23:12.853Z,5.20
2022-09-03T20:24:59.022Z,5.57
2022-09-03T20:26:41.836Z,5.57
2022-09-03T20:28:30.257Z,7.18
2022-09-03T20:30:05.426Z,5.40
2022-09-03T20:31:47.528Z,5.93
2022-09-03T20:33:33.221Z,5.80
2022-09-03T20:35:13.099Z,5.63
2022-09-03T20:36:57.094Z,6.15
2022-09-03T20:38:54.573Z,6.65
2022-09-03T20:40:34.527Z,6.32
2022-09-03T20:42:41.418Z,6.80
2022-09-03T20:44:29.626Z,5.95
2022-09-03T20:46:14.890Z,5.88
2022-09-03T20:48:08.285Z,5.70
2022-09-03T20:49:53.278Z,5.68
2022-09-03T20:51:33.256Z,5.65
2022-09-03T20:53:16.295Z,6.28
2022-09-03T20:55:05.917Z,6.35
2022-09-03T20:56:55.530Z,6.10
2022-09-03T20:58:36.021Z,6.15
2022-09-03T21:00:12.978Z,7.90
2022-09-03T21:01:55.975Z,6.60
2022-09-03T21:03:36.700Z,5.90
2022-09-03T21:05:19.001Z,6.00
2022-09-03T21:07:00.975Z,5.75
2022-09-03T21:09:01.014Z,6.47
2022-09-03T21:10:42.302Z,6.18
2022-09-03T21:12:22.638Z,6.03
2022-09-03T21:14:04.309Z,6.35
2022-09-03T21:15:46.579Z,7.13
2022-09-03T21:17:31.806Z,6.75
2022-09-03T21:19:11.629Z,7.05
2022-09-03T21:20:51.387Z,7.00
2022-09-03T21:22:32.860Z,7.15
2022-09-03T21:24:09.892Z,7.13
2022-09-03T21:25:49.901Z,7.38
2022-09-03T21:27:26.697Z,7.20
2022-09-03T21:29:05.877Z,7.50
2022-09-03T21:30:42.617Z,7.20
2022-09-03T21:32:19.717Z,7.40
2022-09-03T21:33:56.805Z,8.05
2022-09-03T21:35:33.799Z,7.80
2022-09-03T21:37:11.363Z,7.72
2022-09-03T21:38:49.284Z,8.30
2022-09-03T21:40:26.827Z,7.82
2022-09-03T21:42:08.487Z,7.53
2022-09-03T21:43:48.176Z,7.93
2022-09-03T21:45:29.352Z,7.40
2022-09-03T21:47:06.965Z,7.35
2022-09-03T21:48:46.657Z,7.07
2022-09-03T21:50:21.952Z,10.90
2022-09-03T21:52:01.616Z,8.05
2022-09-03T21:53:43.124Z,7.88
2022-09-03T21:55:23.890Z,7.80
2022-09-03T21:57:14.067Z,7.22
2022-09-03T21:59:06.997Z,8.07
2022-09-03T22:00:42.125Z,7.75
2022-09-03T22:02:22.232Z,7.22
2022-09-03T22:03:55.805Z,7.82
2022-09-03T22:05:40.509Z,7.90
2022-09-03T22:07:21.173Z,8.30
2022-09-03T22:09:02.934Z,8.10
2022-09-03T22:10:42.506Z,7.90
2022-09-03T22:12:22.498Z,9.55
2022-09-03T22:14:02.087Z,11.35
2022-09-03T22:15:35.415Z,8.60
2022-09-03T22:18:44.286Z,8.02
2022-09-03T22:20:19.937Z,8.15
2022-09-03T22:21:59.856Z,7.80
2022-09-03T22:23:43.595Z,8.27
2022-09-03T22:25:23.334Z,6.88
2022-09-03T22:27:01.634Z,7.43
2022-09-03T22:28:42.161Z,7.32
2022-09-03T22:30:21.357Z,7.65
2022-09-03T22:31:59.249Z,7.72
2022-09-03T22:33:39.381Z,7.55
2022-09-03T22:35:24.254Z,7.75
2022-09-03T22:37:03.590Z,7.70
2022-09-03T22:39:03.800Z,7.75
2022-09-03T22:40:52.418Z,7.18
2022-09-03T22:42:45.439Z,7.80
2022-09-03T22:44:33.100Z,7.90
2022-09-03T22:46:09.167Z,8.60
2022-09-03T22:47:54.928Z,8.38
2022-09-03T22:49:36.158Z,7.88
2022-09-03T22:51:09.942Z,8.18
2022-09-03T22:52:49.274Z,8.63
2022-09-03T22:54:37.639Z,8.20
2022-09-03T22:56:12.886Z,8.43
2022-09-03T22:57:58.541Z,8.27
2022-09-03T22:59:38.827Z,8.52
2022-09-03T23:01:17.575Z,8.20
2022-09-03T23:02:58.537Z,8.95
2022-09-03T23:04:37.665Z,9.18
2022-09-03T23:06:16.410Z,8.93
2022-09-03T23:07:54.183Z,8.68
2022-09-03T23:09:34.682Z,9.50
2022-09-03T23:11:13.612Z,10.07